Aventura, Florida
Current Conditions -  °F | °C
As of 7:53 PM on Monday 22 Dec 2014 (Local Time) from KHWO Reporting Station
Clear Clear  
Wind Chill: 24°   Ceiling: Unl
Heat Index: 24°   Visibility: 10mi
Dew Point: 21°   Wind: 7mph
Humidity: 84%   Direction: 140°SE
Pressure: 29.98"   Gusts: NA
Location:  25.9536°N, 80.1568°W
Report Text: KHWO 230053Z 14006KT 10SM CLR 24/21 A2998 RMK AO2 SLP152 T02390211
Loading
Personal Weather Stations






























Interactive Weather Map New forecast layout! Learn more

10-Day Weather Forecast

Advertisements
Track Severe Weather on mobile